Akin, Georgia
Current Conditions -  °F | °C
As of 3:55 PM on Sunday 21 Dec 2014 (Local Time) from KCWV Reporting Station
Overcast Overcast  
Wind Chill: 44°   Ceiling: 800
Heat Index: 46°   Visibility: 7mi
Dew Point: 46°   Wind: 6mph
Humidity: 100%   Direction: 80°E
Pressure: 30.12"   Gusts: NA
Location:  32.2794°N, 81.623°W
Report Text: KCWV 212055Z AUTO 08005KT 7SM OVC008 08/08 A3012 RMK AO2
Loading
Personal Weather Stations






























Interactive Weather Map New forecast layout! Learn more

10-Day Weather Forecast

Advertisements
Track Severe Weather on mobile